sensor_id;sensor_type;location;lat;lon;timestamp;P1;durP1;ratioP1;P2;durP2;ratioP2
33902;SDS011;20194;50.950;5.346;2023-06-22T00:02:20;16.73;;;4.93;;
33902;SDS011;20194;50.950;5.346;2023-06-22T00:04:46;14.57;;;4.82;;
33902;SDS011;20194;50.950;5.346;2023-06-22T00:07:12;14.68;;;4.65;;
33902;SDS011;20194;50.950;5.346;2023-06-22T00:09:37;18.38;;;6.10;;
33902;SDS011;20194;50.950;5.346;2023-06-22T00:12:03;15.98;;;5.03;;
33902;SDS011;20194;50.950;5.346;2023-06-22T00:14:32;14.77;;;5.43;;
33902;SDS011;20194;50.950;5.346;2023-06-22T00:16:57;17.08;;;4.82;;
33902;SDS011;20194;50.950;5.346;2023-06-22T00:19:24;17.88;;;5.57;;
33902;SDS011;20194;50.950;5.346;2023-06-22T00:21:50;14.57;;;5.05;;
33902;SDS011;20194;50.950;5.346;2023-06-22T00:24:21;22.73;;;6.43;;
33902;SDS011;20194;50.950;5.346;2023-06-22T00:26:49;39.17;;;10.77;;
33902;SDS011;20194;50.950;5.346;2023-06-22T00:29:14;34.78;;;8.75;;
33902;SDS011;20194;50.950;5.346;2023-06-22T00:31:41;41.17;;;10.23;;
33902;SDS011;20194;50.950;5.346;2023-06-22T00:34:06;86.95;;;19.02;;
33902;SDS011;20194;50.950;5.346;2023-06-22T00:36:33;95.53;;;19.77;;
33902;SDS011;20194;50.950;5.346;2023-06-22T00:38:59;108.82;;;24.50;;
33902;SDS011;20194;50.950;5.346;2023-06-22T00:41:25;122.05;;;26.30;;
33902;SDS011;20194;50.950;5.346;2023-06-22T00:43:53;117.75;;;24.23;;
33902;SDS011;20194;50.950;5.346;2023-06-22T00:46:19;120.93;;;23.10;;
33902;SDS011;20194;50.950;5.346;2023-06-22T00:48:46;109.20;;;23.27;;
33902;SDS011;20194;50.950;5.346;2023-06-22T00:51:11;109.38;;;24.73;;
33902;SDS011;20194;50.950;5.346;2023-06-22T00:53:37;114.22;;;22.85;;
33902;SDS011;20194;50.950;5.346;2023-06-22T00:56:03;91.78;;;19.95;;
33902;SDS011;20194;50.950;5.346;2023-06-22T00:58:30;101.22;;;21.58;;
33902;SDS011;20194;50.950;5.346;2023-06-22T01:00:56;109.80;;;19.50;;
33902;SDS011;20194;50.950;5.346;2023-06-22T01:03:22;92.10;;;21.67;;
33902;SDS011;20194;50.950;5.346;2023-06-22T01:05:48;109.55;;;21.77;;
33902;SDS011;20194;50.950;5.346;2023-06-22T01:11:19;100.28;;;21.38;;
33902;SDS011;20194;50.950;5.346;2023-06-22T01:13:53;109.35;;;22.50;;
33902;SDS011;20194;50.950;5.346;2023-06-22T01:16:28;108.18;;;19.88;;
33902;SDS011;20194;50.950;5.346;2023-06-22T01:18:57;98.60;;;17.95;;
33902;SDS011;20194;50.950;5.346;2023-06-22T01:21:25;86.53;;;19.50;;
33902;SDS011;20194;50.950;5.346;2023-06-22T01:26:42;79.93;;;16.52;;
33902;SDS011;20194;50.950;5.346;2023-06-22T01:29:19;74.13;;;16.48;;
33902;SDS011;20194;50.950;5.346;2023-06-22T01:31:46;59.08;;;14.52;;
33902;SDS011;20194;50.950;5.346;2023-06-22T01:34:14;61.97;;;14.25;;
33902;SDS011;20194;50.950;5.346;2023-06-22T01:36:41;61.05;;;13.88;;
33902;SDS011;20194;50.950;5.346;2023-06-22T01:39:08;69.82;;;13.25;;
33902;SDS011;20194;50.950;5.346;2023-06-22T01:41:35;53.33;;;14.05;;
33902;SDS011;20194;50.950;5.346;2023-06-22T01:44:04;50.35;;;12.55;;
33902;SDS011;20194;50.950;5.346;2023-06-22T01:46:32;48.47;;;12.02;;
33902;SDS011;20194;50.950;5.346;2023-06-22T01:48:59;42.10;;;12.48;;
33902;SDS011;20194;50.950;5.346;2023-06-22T01:51:27;43.90;;;10.43;;
33902;SDS011;20194;50.950;5.346;2023-06-22T01:53:53;48.60;;;10.77;;
33902;SDS011;20194;50.950;5.346;2023-06-22T01:56:19;45.60;;;10.05;;
33902;SDS011;20194;50.950;5.346;2023-06-22T01:58:49;44.65;;;10.60;;
33902;SDS011;20194;50.950;5.346;2023-06-22T02:01:54;42.90;;;10.13;;
33902;SDS011;20194;50.950;5.346;2023-06-22T02:04:27;28.55;;;8.73;;
33902;SDS011;20194;50.950;5.346;2023-06-22T02:07:04;33.17;;;9.40;;
33902;SDS011;20194;50.950;5.346;2023-06-22T02:09:34;24.38;;;8.98;;
33902;SDS011;20194;50.950;5.346;2023-06-22T02:12:02;26.00;;;9.00;;
33902;SDS011;20194;50.950;5.346;2023-06-22T02:14:30;38.97;;;9.70;;
33902;SDS011;20194;50.950;5.346;2023-06-22T02:16:56;27.95;;;8.65;;
33902;SDS011;20194;50.950;5.346;2023-06-22T02:19:24;21.48;;;8.50;;
33902;SDS011;20194;50.950;5.346;2023-06-22T02:21:50;27.42;;;8.63;;
33902;SDS011;20194;50.950;5.346;2023-06-22T02:24:16;20.17;;;7.90;;
33902;SDS011;20194;50.950;5.346;2023-06-22T02:26:42;20.67;;;8.38;;
33902;SDS011;20194;50.950;5.346;2023-06-22T02:29:10;22.67;;;7.95;;
33902;SDS011;20194;50.950;5.346;2023-06-22T02:31:36;18.70;;;8.73;;
33902;SDS011;20194;50.950;5.346;2023-06-22T02:34:02;20.42;;;9.02;;
33902;SDS011;20194;50.950;5.346;2023-06-22T02:36:28;17.83;;;8.30;;
33902;SDS011;20194;50.950;5.346;2023-06-22T02:38:55;21.25;;;8.50;;
33902;SDS011;20194;50.950;5.346;2023-06-22T02:41:23;20.25;;;10.27;;
33902;SDS011;20194;50.950;5.346;2023-06-22T02:43:49;23.63;;;10.32;;
33902;SDS011;20194;50.950;5.346;2023-06-22T02:46:15;18.35;;;10.05;;
33902;SDS011;20194;50.950;5.346;2023-06-22T02:48:43;21.63;;;12.15;;
33902;SDS011;20194;50.950;5.346;2023-06-22T02:51:09;25.85;;;10.77;;
33902;SDS011;20194;50.950;5.346;2023-06-22T02:53:35;22.05;;;11.35;;
33902;SDS011;20194;50.950;5.346;2023-06-22T02:56:03;21.85;;;10.95;;
33902;SDS011;20194;50.950;5.346;2023-06-22T02:58:32;18.75;;;10.35;;
33902;SDS011;20194;50.950;5.346;2023-06-22T03:01:03;16.67;;;9.98;;
33902;SDS011;20194;50.950;5.346;2023-06-22T03:03:30;19.33;;;10.98;;
33902;SDS011;20194;50.950;5.346;2023-06-22T03:05:56;19.08;;;11.13;;
33902;SDS011;20194;50.950;5.346;2023-06-22T03:08:22;23.85;;;12.20;;
33902;SDS011;20194;50.950;5.346;2023-06-22T03:10:47;16.80;;;9.63;;
33902;SDS011;20194;50.950;5.346;2023-06-22T03:13:13;21.15;;;12.13;;
33902;SDS011;20194;50.950;5.346;2023-06-22T03:15:39;18.05;;;11.73;;
33902;SDS011;20194;50.950;5.346;2023-06-22T03:18:04;17.52;;;11.48;;
33902;SDS011;20194;50.950;5.346;2023-06-22T03:20:30;20.08;;;12.57;;
33902;SDS011;20194;50.950;5.346;2023-06-22T03:22:58;20.13;;;12.60;;
33902;SDS011;20194;50.950;5.346;2023-06-22T03:25:24;19.42;;;13.48;;
33902;SDS011;20194;50.950;5.346;2023-06-22T03:27:50;25.25;;;13.68;;
33902;SDS011;20194;50.950;5.346;2023-06-22T03:30:16;23.15;;;14.13;;
33902;SDS011;20194;50.950;5.346;2023-06-22T03:32:41;23.90;;;14.07;;
33902;SDS011;20194;50.950;5.346;2023-06-22T03:35:08;20.60;;;14.45;;
33902;SDS011;20194;50.950;5.346;2023-06-22T03:37:34;19.45;;;14.10;;
33902;SDS011;20194;50.950;5.346;2023-06-22T03:40:00;23.45;;;14.60;;
33902;SDS011;20194;50.950;5.346;2023-06-22T03:42:25;21.42;;;13.98;;
33902;SDS011;20194;50.950;5.346;2023-06-22T03:44:51;18.70;;;13.30;;
33902;SDS011;20194;50.950;5.346;2023-06-22T03:47:17;19.40;;;13.63;;
33902;SDS011;20194;50.950;5.346;2023-06-22T03:49:43;21.35;;;14.80;;
33902;SDS011;20194;50.950;5.346;2023-06-22T03:52:09;27.02;;;13.73;;
33902;SDS011;20194;50.950;5.346;2023-06-22T03:54:36;21.45;;;14.80;;
33902;SDS011;20194;50.950;5.346;2023-06-22T03:57:01;26.98;;;14.90;;
33902;SDS011;20194;50.950;5.346;2023-06-22T03:59:27;20.17;;;12.30;;
33902;SDS011;20194;50.950;5.346;2023-06-22T04:01:53;19.55;;;14.27;;
33902;SDS011;20194;50.950;5.346;2023-06-22T04:04:19;24.92;;;14.45;;
33902;SDS011;20194;50.950;5.346;2023-06-22T04:06:45;18.75;;;13.45;;
33902;SDS011;20194;50.950;5.346;2023-06-22T04:09:11;23.10;;;15.02;;
33902;SDS011;20194;50.950;5.346;2023-06-22T04:11:37;21.23;;;14.15;;
33902;SDS011;20194;50.950;5.346;2023-06-22T04:14:03;24.98;;;15.93;;
33902;SDS011;20194;50.950;5.346;2023-06-22T04:16:28;19.52;;;14.23;;
33902;SDS011;20194;50.950;5.346;2023-06-22T04:18:54;22.48;;;14.68;;
33902;SDS011;20194;50.950;5.346;2023-06-22T04:21:19;23.83;;;14.65;;
33902;SDS011;20194;50.950;5.346;2023-06-22T04:23:45;28.13;;;14.65;;
33902;SDS011;20194;50.950;5.346;2023-06-22T04:26:11;21.45;;;12.48;;
33902;SDS011;20194;50.950;5.346;2023-06-22T04:28:38;17.73;;;12.50;;
33902;SDS011;20194;50.950;5.346;2023-06-22T04:31:04;25.20;;;13.57;;
33902;SDS011;20194;50.950;5.346;2023-06-22T04:33:31;21.60;;;13.65;;
33902;SDS011;20194;50.950;5.346;2023-06-22T04:35:57;20.33;;;13.10;;
33902;SDS011;20194;50.950;5.346;2023-06-22T04:38:26;20.77;;;13.52;;
33902;SDS011;20194;50.950;5.346;2023-06-22T04:40:52;21.55;;;13.05;;
33902;SDS011;20194;50.950;5.346;2023-06-22T04:43:18;22.80;;;14.57;;
33902;SDS011;20194;50.950;5.346;2023-06-22T04:45:44;22.77;;;13.88;;
33902;SDS011;20194;50.950;5.346;2023-06-22T04:48:10;23.75;;;15.43;;
33902;SDS011;20194;50.950;5.346;2023-06-22T04:50:41;21.40;;;14.07;;
33902;SDS011;20194;50.950;5.346;2023-06-22T04:53:07;20.60;;;13.50;;
33902;SDS011;20194;50.950;5.346;2023-06-22T04:55:34;24.10;;;13.93;;
33902;SDS011;20194;50.950;5.346;2023-06-22T04:58:03;23.90;;;15.45;;
33902;SDS011;20194;50.950;5.346;2023-06-22T05:00:30;25.70;;;15.32;;
33902;SDS011;20194;50.950;5.346;2023-06-22T05:02:56;19.70;;;12.63;;
33902;SDS011;20194;50.950;5.346;2023-06-22T05:05:23;28.80;;;16.92;;
33902;SDS011;20194;50.950;5.346;2023-06-22T05:07:50;25.38;;;14.55;;
33902;SDS011;20194;50.950;5.346;2023-06-22T05:10:18;22.98;;;14.98;;
33902;SDS011;20194;50.950;5.346;2023-06-22T05:12:48;18.08;;;11.52;;
33902;SDS011;20194;50.950;5.346;2023-06-22T05:15:16;19.63;;;12.48;;
33902;SDS011;20194;50.950;5.346;2023-06-22T05:17:44;20.05;;;12.20;;
33902;SDS011;20194;50.950;5.346;2023-06-22T05:20:10;19.65;;;14.25;;
33902;SDS011;20194;50.950;5.346;2023-06-22T05:22:37;19.98;;;13.95;;
33902;SDS011;20194;50.950;5.346;2023-06-22T05:25:08;23.38;;;16.25;;
33902;SDS011;20194;50.950;5.346;2023-06-22T05:27:34;31.33;;;16.65;;
33902;SDS011;20194;50.950;5.346;2023-06-22T05:30:04;26.85;;;16.65;;
33902;SDS011;20194;50.950;5.346;2023-06-22T05:32:31;22.02;;;16.65;;
33902;SDS011;20194;50.950;5.346;2023-06-22T05:34:57;29.23;;;18.08;;
33902;SDS011;20194;50.950;5.346;2023-06-22T05:37:23;26.95;;;16.60;;
33902;SDS011;20194;50.950;5.346;2023-06-22T05:39:51;27.20;;;17.40;;
33902;SDS011;20194;50.950;5.346;2023-06-22T05:42:16;27.20;;;17.88;;
33902;SDS011;20194;50.950;5.346;2023-06-22T05:44:42;25.23;;;16.13;;
33902;SDS011;20194;50.950;5.346;2023-06-22T05:47:08;24.27;;;17.05;;
33902;SDS011;20194;50.950;5.346;2023-06-22T05:49:34;24.83;;;18.10;;
33902;SDS011;20194;50.950;5.346;2023-06-22T05:52:00;25.33;;;18.63;;
33902;SDS011;20194;50.950;5.346;2023-06-22T05:54:27;27.98;;;17.83;;
33902;SDS011;20194;50.950;5.346;2023-06-22T05:56:53;26.08;;;18.48;;
33902;SDS011;20194;50.950;5.346;2023-06-22T05:59:19;25.40;;;17.58;;
33902;SDS011;20194;50.950;5.346;2023-06-22T06:01:45;30.27;;;18.42;;
33902;SDS011;20194;50.950;5.346;2023-06-22T06:04:14;26.63;;;16.67;;
33902;SDS011;20194;50.950;5.346;2023-06-22T06:06:43;24.67;;;17.90;;
33902;SDS011;20194;50.950;5.346;2023-06-22T06:09:09;29.95;;;18.60;;
33902;SDS011;20194;50.950;5.346;2023-06-22T06:11:36;32.35;;;18.25;;
33902;SDS011;20194;50.950;5.346;2023-06-22T06:14:02;24.35;;;16.98;;
33902;SDS011;20194;50.950;5.346;2023-06-22T06:16:30;26.40;;;17.27;;
33902;SDS011;20194;50.950;5.346;2023-06-22T06:18:56;29.15;;;17.55;;
33902;SDS011;20194;50.950;5.346;2023-06-22T06:21:23;25.25;;;18.20;;
33902;SDS011;20194;50.950;5.346;2023-06-22T06:23:49;25.25;;;17.77;;
33902;SDS011;20194;50.950;5.346;2023-06-22T06:26:15;35.50;;;18.73;;
33902;SDS011;20194;50.950;5.346;2023-06-22T06:28:48;25.50;;;17.95;;
33902;SDS011;20194;50.950;5.346;2023-06-22T06:31:14;25.48;;;18.08;;
33902;SDS011;20194;50.950;5.346;2023-06-22T06:33:42;30.35;;;19.67;;
33902;SDS011;20194;50.950;5.346;2023-06-22T06:36:07;29.10;;;17.92;;
33902;SDS011;20194;50.950;5.346;2023-06-22T06:38:33;28.65;;;18.60;;
33902;SDS011;20194;50.950;5.346;2023-06-22T06:40:59;29.95;;;19.15;;
33902;SDS011;20194;50.950;5.346;2023-06-22T06:43:24;28.00;;;17.35;;
33902;SDS011;20194;50.950;5.346;2023-06-22T06:45:50;27.02;;;16.77;;
33902;SDS011;20194;50.950;5.346;2023-06-22T06:48:16;24.92;;;18.20;;
33902;SDS011;20194;50.950;5.346;2023-06-22T06:50:42;27.40;;;19.17;;
33902;SDS011;20194;50.950;5.346;2023-06-22T06:53:09;26.90;;;18.10;;
33902;SDS011;20194;50.950;5.346;2023-06-22T06:55:35;28.05;;;20.08;;
33902;SDS011;20194;50.950;5.346;2023-06-22T06:58:01;27.30;;;18.13;;
33902;SDS011;20194;50.950;5.346;2023-06-22T07:00:27;28.10;;;19.65;;
33902;SDS011;20194;50.950;5.346;2023-06-22T07:02:53;28.02;;;19.48;;
33902;SDS011;20194;50.950;5.346;2023-06-22T07:05:19;31.05;;;18.70;;
33902;SDS011;20194;50.950;5.346;2023-06-22T07:07:44;24.02;;;17.33;;
33902;SDS011;20194;50.950;5.346;2023-06-22T07:10:10;16.73;;;12.65;;
33902;SDS011;20194;50.950;5.346;2023-06-22T07:12:37;29.83;;;18.05;;
33902;SDS011;20194;50.950;5.346;2023-06-22T07:15:06;30.25;;;18.00;;
33902;SDS011;20194;50.950;5.346;2023-06-22T07:17:33;28.30;;;17.88;;
33902;SDS011;20194;50.950;5.346;2023-06-22T07:20:00;25.30;;;13.80;;
33902;SDS011;20194;50.950;5.346;2023-06-22T07:22:27;24.35;;;16.95;;
33902;SDS011;20194;50.950;5.346;2023-06-22T07:24:52;29.13;;;17.85;;
33902;SDS011;20194;50.950;5.346;2023-06-22T07:27:18;26.55;;;18.25;;
33902;SDS011;20194;50.950;5.346;2023-06-22T07:29:45;28.20;;;15.23;;
33902;SDS011;20194;50.950;5.346;2023-06-22T07:32:10;35.60;;;17.30;;
33902;SDS011;20194;50.950;5.346;2023-06-22T07:34:36;26.70;;;15.75;;
33902;SDS011;20194;50.950;5.346;2023-06-22T07:37:02;28.27;;;16.63;;
33902;SDS011;20194;50.950;5.346;2023-06-22T07:39:29;30.40;;;17.80;;
33902;SDS011;20194;50.950;5.346;2023-06-22T07:41:55;31.00;;;17.30;;
33902;SDS011;20194;50.950;5.346;2023-06-22T07:44:20;28.08;;;17.17;;
33902;SDS011;20194;50.950;5.346;2023-06-22T07:46:47;25.40;;;14.75;;
33902;SDS011;20194;50.950;5.346;2023-06-22T07:49:14;30.02;;;16.70;;
33902;SDS011;20194;50.950;5.346;2023-06-22T07:51:40;30.67;;;16.90;;
33902;SDS011;20194;50.950;5.346;2023-06-22T07:54:06;29.80;;;17.52;;
33902;SDS011;20194;50.950;5.346;2023-06-22T07:56:32;33.50;;;18.35;;
33902;SDS011;20194;50.950;5.346;2023-06-22T07:58:58;34.95;;;18.50;;
33902;SDS011;20194;50.950;5.346;2023-06-22T08:01:25;30.90;;;16.92;;
33902;SDS011;20194;50.950;5.346;2023-06-22T08:03:51;32.22;;;18.52;;
33902;SDS011;20194;50.950;5.346;2023-06-22T08:06:17;31.67;;;18.55;;
33902;SDS011;20194;50.950;5.346;2023-06-22T08:08:43;30.45;;;18.35;;
33902;SDS011;20194;50.950;5.346;2023-06-22T08:11:08;32.45;;;17.27;;
33902;SDS011;20194;50.950;5.346;2023-06-22T08:13:34;28.88;;;18.25;;
33902;SDS011;20194;50.950;5.346;2023-06-22T08:16:00;25.73;;;17.88;;
33902;SDS011;20194;50.950;5.346;2023-06-22T08:18:26;30.88;;;19.10;;
33902;SDS011;20194;50.950;5.346;2023-06-22T08:20:52;28.60;;;17.38;;
33902;SDS011;20194;50.950;5.346;2023-06-22T08:23:17;28.52;;;18.92;;
33902;SDS011;20194;50.950;5.346;2023-06-22T08:25:43;27.08;;;17.95;;
33902;SDS011;20194;50.950;5.346;2023-06-22T08:28:09;27.88;;;17.63;;
33902;SDS011;20194;50.950;5.346;2023-06-22T08:30:35;25.08;;;16.73;;
33902;SDS011;20194;50.950;5.346;2023-06-22T08:33:01;24.33;;;18.17;;
33902;SDS011;20194;50.950;5.346;2023-06-22T08:35:27;24.88;;;17.33;;
33902;SDS011;20194;50.950;5.346;2023-06-22T08:37:52;25.83;;;18.58;;
33902;SDS011;20194;50.950;5.346;2023-06-22T08:40:19;27.05;;;17.92;;
33902;SDS011;20194;50.950;5.346;2023-06-22T08:42:46;31.77;;;19.00;;
33902;SDS011;20194;50.950;5.346;2023-06-22T08:45:12;22.65;;;15.27;;
33902;SDS011;20194;50.950;5.346;2023-06-22T08:47:41;24.02;;;15.00;;
33902;SDS011;20194;50.950;5.346;2023-06-22T08:50:08;27.85;;;17.25;;
33902;SDS011;20194;50.950;5.346;2023-06-22T08:52:40;20.30;;;16.00;;
33902;SDS011;20194;50.950;5.346;2023-06-22T08:55:09;22.75;;;17.00;;
33902;SDS011;20194;50.950;5.346;2023-06-22T08:57:35;24.10;;;17.52;;
33902;SDS011;20194;50.950;5.346;2023-06-22T09:00:05;26.45;;;17.02;;
33902;SDS011;20194;50.950;5.346;2023-06-22T09:02:45;24.75;;;19.30;;
33902;SDS011;20194;50.950;5.346;2023-06-22T09:05:12;20.85;;;16.77;;
33902;SDS011;20194;50.950;5.346;2023-06-22T09:07:38;22.40;;;17.00;;
33902;SDS011;20194;50.950;5.346;2023-06-22T09:10:04;24.10;;;17.98;;
33902;SDS011;20194;50.950;5.346;2023-06-22T09:12:31;25.42;;;17.75;;
33902;SDS011;20194;50.950;5.346;2023-06-22T09:14:58;29.83;;;20.95;;
33902;SDS011;20194;50.950;5.346;2023-06-22T09:17:25;28.83;;;18.67;;
33902;SDS011;20194;50.950;5.346;2023-06-22T09:19:51;25.42;;;16.80;;
33902;SDS011;20194;50.950;5.346;2023-06-22T09:22:17;30.63;;;20.65;;
33902;SDS011;20194;50.950;5.346;2023-06-22T09:24:43;23.55;;;17.08;;
33902;SDS011;20194;50.950;5.346;2023-06-22T09:27:09;29.73;;;19.98;;
33902;SDS011;20194;50.950;5.346;2023-06-22T09:29:34;25.25;;;17.27;;
33902;SDS011;20194;50.950;5.346;2023-06-22T09:32:00;22.33;;;16.80;;
33902;SDS011;20194;50.950;5.346;2023-06-22T09:34:26;28.38;;;20.40;;
33902;SDS011;20194;50.950;5.346;2023-06-22T09:36:53;32.17;;;22.25;;
33902;SDS011;20194;50.950;5.346;2023-06-22T09:39:20;32.53;;;21.55;;
33902;SDS011;20194;50.950;5.346;2023-06-22T09:41:45;28.77;;;20.92;;
33902;SDS011;20194;50.950;5.346;2023-06-22T09:44:11;32.92;;;22.45;;
33902;SDS011;20194;50.950;5.346;2023-06-22T09:46:37;24.52;;;18.67;;
33902;SDS011;20194;50.950;5.346;2023-06-22T09:49:02;30.05;;;21.38;;
33902;SDS011;20194;50.950;5.346;2023-06-22T09:51:29;25.23;;;19.30;;
33902;SDS011;20194;50.950;5.346;2023-06-22T09:53:54;31.20;;;20.60;;
33902;SDS011;20194;50.950;5.346;2023-06-22T09:56:20;28.45;;;20.02;;
33902;SDS011;20194;50.950;5.346;2023-06-22T09:58:46;33.20;;;23.02;;
33902;SDS011;20194;50.950;5.346;2023-06-22T10:01:12;30.60;;;21.00;;
33902;SDS011;20194;50.950;5.346;2023-06-22T10:03:42;33.67;;;24.73;;
33902;SDS011;20194;50.950;5.346;2023-06-22T10:06:07;34.42;;;25.10;;
33902;SDS011;20194;50.950;5.346;2023-06-22T10:08:34;26.80;;;17.30;;
33902;SDS011;20194;50.950;5.346;2023-06-22T10:11:00;33.35;;;25.25;;
33902;SDS011;20194;50.950;5.346;2023-06-22T10:13:26;40.83;;;25.48;;
33902;SDS011;20194;50.950;5.346;2023-06-22T10:15:52;33.80;;;24.17;;
33902;SDS011;20194;50.950;5.346;2023-06-22T10:18:18;37.90;;;24.23;;
33902;SDS011;20194;50.950;5.346;2023-06-22T10:20:46;36.13;;;24.83;;
33902;SDS011;20194;50.950;5.346;2023-06-22T10:23:13;36.28;;;25.35;;
33902;SDS011;20194;50.950;5.346;2023-06-22T10:25:39;41.70;;;27.52;;
33902;SDS011;20194;50.950;5.346;2023-06-22T10:28:05;37.13;;;26.83;;
33902;SDS011;20194;50.950;5.346;2023-06-22T10:30:31;39.08;;;28.02;;
33902;SDS011;20194;50.950;5.346;2023-06-22T10:32:57;38.63;;;28.25;;
33902;SDS011;20194;50.950;5.346;2023-06-22T10:35:23;39.05;;;28.13;;
33902;SDS011;20194;50.950;5.346;2023-06-22T10:37:48;35.20;;;28.20;;
33902;SDS011;20194;50.950;5.346;2023-06-22T10:40:14;42.67;;;28.27;;
33902;SDS011;20194;50.950;5.346;2023-06-22T10:42:42;38.30;;;28.75;;
33902;SDS011;20194;50.950;5.346;2023-06-22T10:45:08;34.85;;;27.95;;
33902;SDS011;20194;50.950;5.346;2023-06-22T10:47:34;37.78;;;28.88;;
33902;SDS011;20194;50.950;5.346;2023-06-22T10:50:01;40.22;;;30.25;;
33902;SDS011;20194;50.950;5.346;2023-06-22T10:52:27;41.35;;;28.73;;
33902;SDS011;20194;50.950;5.346;2023-06-22T10:54:53;41.90;;;31.08;;
33902;SDS011;20194;50.950;5.346;2023-06-22T10:57:18;42.60;;;29.30;;
33902;SDS011;20194;50.950;5.346;2023-06-22T10:59:44;39.85;;;29.30;;
33902;SDS011;20194;50.950;5.346;2023-06-22T11:02:10;37.88;;;28.80;;
33902;SDS011;20194;50.950;5.346;2023-06-22T11:04:36;41.70;;;30.50;;
33902;SDS011;20194;50.950;5.346;2023-06-22T11:07:01;37.83;;;28.65;;
33902;SDS011;20194;50.950;5.346;2023-06-22T11:09:27;42.22;;;31.58;;
33902;SDS011;20194;50.950;5.346;2023-06-22T11:11:55;44.65;;;32.10;;
33902;SDS011;20194;50.950;5.346;2023-06-22T11:14:21;40.33;;;29.80;;
33902;SDS011;20194;50.950;5.346;2023-06-22T11:16:47;42.40;;;30.48;;
33902;SDS011;20194;50.950;5.346;2023-06-22T11:19:13;42.10;;;30.60;;
33902;SDS011;20194;50.950;5.346;2023-06-22T11:21:38;42.45;;;30.85;;
33902;SDS011;20194;50.950;5.346;2023-06-22T11:24:04;47.75;;;31.70;;
33902;SDS011;20194;50.950;5.346;2023-06-22T11:26:30;41.92;;;31.50;;
33902;SDS011;20194;50.950;5.346;2023-06-22T11:28:59;40.75;;;30.20;;
33902;SDS011;20194;50.950;5.346;2023-06-22T11:31:25;39.10;;;28.42;;
33902;SDS011;20194;50.950;5.346;2023-06-22T11:33:51;43.17;;;30.38;;
33902;SDS011;20194;50.950;5.346;2023-06-22T11:36:16;35.45;;;27.70;;
33902;SDS011;20194;50.950;5.346;2023-06-22T11:38:42;41.38;;;30.17;;
33902;SDS011;20194;50.950;5.346;2023-06-22T11:41:09;38.95;;;30.75;;
33902;SDS011;20194;50.950;5.346;2023-06-22T11:43:35;41.55;;;30.60;;
33902;SDS011;20194;50.950;5.346;2023-06-22T11:46:05;37.58;;;28.85;;
33902;SDS011;20194;50.950;5.346;2023-06-22T11:48:31;37.13;;;29.55;;
33902;SDS011;20194;50.950;5.346;2023-06-22T11:50:56;31.27;;;24.77;;
33902;SDS011;20194;50.950;5.346;2023-06-22T11:53:23;33.90;;;26.90;;
33902;SDS011;20194;50.950;5.346;2023-06-22T11:55:50;39.78;;;29.52;;
33902;SDS011;20194;50.950;5.346;2023-06-22T11:58:16;43.30;;;30.42;;
33902;SDS011;20194;50.950;5.346;2023-06-22T12:00:41;38.92;;;29.60;;
33902;SDS011;20194;50.950;5.346;2023-06-22T12:03:07;35.85;;;24.67;;
33902;SDS011;20194;50.950;5.346;2023-06-22T12:05:34;36.10;;;28.45;;
33902;SDS011;20194;50.950;5.346;2023-06-22T12:07:59;38.33;;;29.08;;
33902;SDS011;20194;50.950;5.346;2023-06-22T12:10:25;38.00;;;28.38;;
33902;SDS011;20194;50.950;5.346;2023-06-22T12:12:53;42.97;;;30.17;;
33902;SDS011;20194;50.950;5.346;2023-06-22T12:15:19;39.35;;;29.75;;
33902;SDS011;20194;50.950;5.346;2023-06-22T12:17:51;41.92;;;29.40;;
33902;SDS011;20194;50.950;5.346;2023-06-22T12:20:16;43.20;;;29.35;;
33902;SDS011;20194;50.950;5.346;2023-06-22T12:22:43;43.95;;;30.88;;
33902;SDS011;20194;50.950;5.346;2023-06-22T12:25:08;45.75;;;31.48;;
33902;SDS011;20194;50.950;5.346;2023-06-22T12:27:37;41.83;;;32.88;;
33902;SDS011;20194;50.950;5.346;2023-06-22T12:30:03;36.15;;;28.00;;
33902;SDS011;20194;50.950;5.346;2023-06-22T12:32:30;46.03;;;31.58;;
33902;SDS011;20194;50.950;5.346;2023-06-22T12:34:56;45.83;;;31.52;;
33902;SDS011;20194;50.950;5.346;2023-06-22T12:37:22;44.53;;;30.70;;
33902;SDS011;20194;50.950;5.346;2023-06-22T12:39:48;41.95;;;31.80;;
33902;SDS011;20194;50.950;5.346;2023-06-22T12:42:14;43.05;;;32.92;;
33902;SDS011;20194;50.950;5.346;2023-06-22T12:44:40;41.75;;;31.10;;
33902;SDS011;20194;50.950;5.346;2023-06-22T12:47:07;38.47;;;28.13;;
33902;SDS011;20194;50.950;5.346;2023-06-22T12:49:36;56.30;;;32.15;;
33902;SDS011;20194;50.950;5.346;2023-06-22T12:52:02;43.83;;;31.20;;
33902;SDS011;20194;50.950;5.346;2023-06-22T12:54:33;31.90;;;24.98;;
33902;SDS011;20194;50.950;5.346;2023-06-22T12:56:59;45.03;;;31.50;;
33902;SDS011;20194;50.950;5.346;2023-06-22T12:59:25;43.65;;;31.45;;
33902;SDS011;20194;50.950;5.346;2023-06-22T13:01:50;39.88;;;30.17;;
33902;SDS011;20194;50.950;5.346;2023-06-22T13:04:16;39.22;;;28.15;;
33902;SDS011;20194;50.950;5.346;2023-06-22T13:06:43;39.90;;;29.60;;
33902;SDS011;20194;50.950;5.346;2023-06-22T13:09:13;40.92;;;30.50;;
33902;SDS011;20194;50.950;5.346;2023-06-22T13:11:40;38.17;;;28.35;;
33902;SDS011;20194;50.950;5.346;2023-06-22T13:14:06;38.50;;;27.52;;
33902;SDS011;20194;50.950;5.346;2023-06-22T13:16:32;36.47;;;28.25;;
33902;SDS011;20194;50.950;5.346;2023-06-22T13:18:58;31.90;;;24.08;;
33902;SDS011;20194;50.950;5.346;2023-06-22T13:21:24;37.25;;;26.48;;
33902;SDS011;20194;50.950;5.346;2023-06-22T13:23:49;34.55;;;24.13;;
33902;SDS011;20194;50.950;5.346;2023-06-22T13:26:15;26.58;;;20.73;;
33902;SDS011;20194;50.950;5.346;2023-06-22T13:28:40;29.83;;;21.05;;
33902;SDS011;20194;50.950;5.346;2023-06-22T13:31:06;32.95;;;24.85;;
33902;SDS011;20194;50.950;5.346;2023-06-22T13:33:32;29.38;;;20.10;;
33902;SDS011;20194;50.950;5.346;2023-06-22T13:35:57;33.40;;;22.92;;
33902;SDS011;20194;50.950;5.346;2023-06-22T13:38:23;31.33;;;21.65;;
33902;SDS011;20194;50.950;5.346;2023-06-22T13:40:49;29.77;;;21.42;;
33902;SDS011;20194;50.950;5.346;2023-06-22T13:43:16;26.77;;;19.77;;
33902;SDS011;20194;50.950;5.346;2023-06-22T13:45:42;29.25;;;21.42;;
33902;SDS011;20194;50.950;5.346;2023-06-22T13:48:08;23.92;;;19.05;;
33902;SDS011;20194;50.950;5.346;2023-06-22T13:50:34;31.55;;;19.90;;
33902;SDS011;20194;50.950;5.346;2023-06-22T13:53:01;27.15;;;20.55;;
33902;SDS011;20194;50.950;5.346;2023-06-22T13:55:27;26.60;;;21.00;;
33902;SDS011;20194;50.950;5.346;2023-06-22T13:57:52;30.27;;;21.92;;
33902;SDS011;20194;50.950;5.346;2023-06-22T14:00:18;29.20;;;20.98;;
33902;SDS011;20194;50.950;5.346;2023-06-22T14:02:44;34.67;;;22.63;;
33902;SDS011;20194;50.950;5.346;2023-06-22T14:05:10;33.53;;;23.52;;
33902;SDS011;20194;50.950;5.346;2023-06-22T14:07:36;32.47;;;22.75;;
33902;SDS011;20194;50.950;5.346;2023-06-22T14:10:02;35.22;;;25.35;;
33902;SDS011;20194;50.950;5.346;2023-06-22T14:12:28;32.67;;;23.35;;
33902;SDS011;20194;50.950;5.346;2023-06-22T14:14:54;35.00;;;26.45;;
33902;SDS011;20194;50.950;5.346;2023-06-22T14:17:20;35.95;;;26.52;;
33902;SDS011;20194;50.950;5.346;2023-06-22T14:19:51;30.92;;;24.15;;
33902;SDS011;20194;50.950;5.346;2023-06-22T14:22:18;30.10;;;22.27;;
33902;SDS011;20194;50.950;5.346;2023-06-22T14:24:44;36.85;;;25.40;;